Time;durP1;ratioP1;P1;durP2;ratioP2;P2;SDS_P1;SDS_P2;PMS_P1;PMS_P2;Temp;Humidity;BMP_temperature;BMP_pressure;BME280_temperature;BME280_humidity;BME280_pressure;Samples;Min_cycle;Max_cycle;Signal;HPM_P1;HPM_P2
2021/07/08 00:00:17;;;;;;;1.17;0.37;;;22.80;99.90;;;;;;20763663;23;20263;-67
2021/07/08 00:10:27;;;;;;;0.23;0.20;;;22.90;99.90;;;;;;20822300;28;20690;-68
2021/07/08 00:20:32;;;;;;;0.20;0.10;;;22.90;99.90;;;;;;20821690;28;20233;-68
2021/07/08 00:30:36;;;;;;;0.30;0.20;;;23.10;99.90;;;;;;20821048;28;20189;-68
2021/07/08 00:40:42;;;;;;;3.57;1.23;;;23.30;99.90;;;;;;20819888;28;20308;-68
2021/07/08 00:50:47;;;;;;;0.50;0.30;;;23.30;99.90;;;;;;20819604;28;20659;-68
2021/07/08 01:00:52;;;;;;;0.50;0.30;;;23.20;99.90;;;;;;20830991;22;20302;-69
2021/07/08 01:10:56;;;;;;;0.67;0.40;;;23.20;99.90;;;;;;20817803;28;20197;-69
2021/07/08 01:21:20;;;;;;;0.30;0.25;;;23.30;99.90;;;;;;20818776;28;20276;-68
2021/07/08 01:31:25;;;;;;;5.77;1.27;;;23.30;99.90;;;;;;20818368;28;20297;-69
2021/07/08 01:41:30;;;;;;;3.10;0.33;;;23.20;99.90;;;;;;20817015;28;20625;-70
2021/07/08 01:51:35;;;;;;;0.30;0.20;;;23.30;99.90;;;;;;20817165;28;20531;-69
2021/07/08 02:01:40;;;;;;;0.20;0.00;;;23.30;99.90;;;;;;20828590;22;20229;-68
2021/07/08 02:11:44;;;;;;;6.40;0.43;;;23.20;99.90;;;;;;20817425;28;20205;-68
2021/07/08 02:21:49;;;;;;;0.30;0.23;;;23.10;99.90;;;;;;20830113;28;20240;-67
2021/07/08 02:31:53;;;;;;;0.20;0.10;;;23.10;99.90;;;;;;20830081;28;20289;-67
2021/07/08 02:41:58;;;;;;;0.23;0.17;;;22.30;99.90;;;;;;20844843;28;20225;-68
2021/07/08 02:52:01;;;;;;;0.50;0.50;;;21.70;99.90;;;;;;20827992;28;20300;-69
2021/07/08 03:02:07;;;;;;;0.20;0.10;;;21.60;99.90;;;;;;20828193;28;20337;-69
2021/07/08 03:12:10;;;;;;;0.20;0.10;;;21.50;99.90;;;;;;20826649;28;20618;-67
2021/07/08 03:22:15;;;;;;;0.50;0.50;;;21.50;99.90;;;;;;20802900;28;20198;-68
2021/07/08 03:32:19;;;;;;;6.43;0.80;;;20.10;99.90;;;;;;20776308;28;20651;-67
2021/07/08 03:42:25;;;;;;;0.40;0.20;;;20.20;99.90;;;;;;20801074;28;20195;-67
2021/07/08 03:52:28;;;;;;;0.57;0.57;;;19.80;99.90;;;;;;20742656;28;20286;-67
2021/07/08 04:02:34;;;;;;;0.20;0.10;;;19.30;99.90;;;;;;20768128;28;20782;-67
2021/07/08 04:12:38;;;;;;;0.20;0.13;;;19.60;99.90;;;;;;20822214;28;20534;-68
2021/07/08 04:22:43;;;;;;;0.20;0.10;;;19.70;99.90;;;;;;20822188;28;20202;-68
2021/07/08 04:32:47;;;;;;;4.87;0.83;;;19.70;99.90;;;;;;20820596;28;20608;-68
2021/07/08 04:42:53;;;;;;;0.23;0.23;;;19.80;99.90;;;;;;20820069;28;20213;-68
2021/07/08 04:52:57;;;;;;;1.37;0.60;;;20.10;99.90;;;;;;20818182;28;20559;-68
2021/07/08 05:03:06;;;;;;;0.67;0.30;;;20.00;99.90;;;;;;20817047;28;20312;-67
2021/07/08 05:13:10;;;;;;;0.23;0.20;;;19.90;99.90;;;;;;20817245;28;20277;-68
2021/07/08 05:23:18;;;;;;;6.93;0.57;;;20.10;99.90;;;;;;20818705;28;20206;-68
2021/07/08 05:33:22;;;;;;;0.23;0.23;;;20.10;99.90;;;;;;20816933;28;20301;-67
2021/07/08 05:43:27;;;;;;;0.20;0.20;;;20.40;99.90;;;;;;20816627;28;20212;-68
2021/07/08 05:53:31;;;;;;;1.30;0.47;;;20.30;99.90;;;;;;20829554;28;20256;-69
2021/07/08 06:03:37;;;;;;;8.13;1.00;;;20.50;99.90;;;;;;20831129;28;20218;-68
2021/07/08 06:13:40;;;;;;;0.80;0.50;;;20.70;99.90;;;;;;20831414;28;20256;-71
2021/07/08 06:23:45;;;;;;;4.97;0.77;;;21.20;99.90;;;;;;20829631;28;20233;-67
2021/07/08 06:33:49;;;;;;;0.20;0.00;;;21.30;99.90;;;;;;20826603;28;20778;-67
2021/07/08 06:43:54;;;;;;;0.67;0.53;;;21.30;99.90;;;;;;20827854;28;20790;-68
2021/07/08 06:53:58;;;;;;;0.43;0.20;;;21.70;99.90;;;;;;20826672;28;20663;-66
2021/07/08 07:04:03;;;;;;;1.17;0.50;;;22.00;99.90;;;;;;20793491;28;20726;-66
2021/07/08 07:14:07;;;;;;;0.20;0.20;;;22.30;99.90;;;;;;20754123;28;20229;-67
2021/07/08 07:24:11;;;;;;;2.73;0.83;;;22.60;99.90;;;;;;20762889;28;20526;-67
2021/07/08 07:34:15;;;;;;;0.20;0.00;;;22.40;99.90;;;;;;20780364;28;20257;-66
2021/07/08 07:44:20;;;;;;;1.17;1.07;;;22.40;99.90;;;;;;20779064;28;20186;-69
2021/07/08 07:54:24;;;;;;;0.20;0.10;;;22.20;99.90;;;;;;20777057;28;20726;-69
2021/07/08 08:04:31;;;;;;;2.87;1.00;;;22.40;99.90;;;;;;20777060;28;20714;-68
2021/07/08 08:14:34;;;;;;;4.03;0.30;;;22.70;99.90;;;;;;20814782;28;20226;-70
2021/07/08 08:24:40;;;;;;;1.10;0.57;;;22.90;99.90;;;;;;20810582;28;20697;-68
2021/07/08 08:34:43;;;;;;;0.20;0.20;;;23.10;99.90;;;;;;20813075;28;20218;-69
2021/07/08 08:44:48;;;;;;;1.53;0.40;;;23.10;99.90;;;;;;20796974;28;20684;-68
2021/07/08 08:54:52;;;;;;;0.60;0.37;;;22.80;99.90;;;;;;20734165;28;20281;-69
2021/07/08 09:04:58;;;;;;;0.20;0.20;;;23.10;99.90;;;;;;20781765;28;20562;-69
2021/07/08 09:15:16;;;;;;;0.33;0.27;;;22.90;99.90;;;;;;20815380;28;20641;-70
2021/07/08 09:25:27;;;;;;;0.20;0.10;;;23.30;99.90;;;;;;20773839;28;20290;-69
2021/07/08 09:35:35;;;;;;;0.25;0.25;;;23.70;99.90;;;;;;20772683;28;20226;-69
2021/07/08 09:45:47;;;;;;;0.73;0.63;;;23.90;99.90;;;;;;20775684;28;20288;-69
2021/07/08 09:56:08;;;;;;;0.25;0.25;;;24.20;99.90;;;;;;20799688;28;20248;-67
2021/07/08 10:06:13;;;;;;;6.32;1.85;;;24.40;99.90;;;;;;20813496;28;20262;-69
2021/07/08 10:16:18;;;;;;;0.55;0.38;;;24.50;99.90;;;;;;20813546;28;20308;-69
2021/07/08 10:26:23;;;;;;;0.47;0.40;;;24.90;99.90;;;;;;20812649;28;20256;-68
2021/07/08 10:36:31;;;;;;;2.35;0.93;;;25.40;99.90;;;;;;20818574;28;20258;-68
2021/07/08 10:46:38;;;;;;;0.63;0.47;;;26.10;99.90;;;;;;20827654;28;20222;-69
2021/07/08 10:56:41;;;;;;;0.22;0.15;;;26.10;99.90;;;;;;20826479;28;20226;-68
2021/07/08 11:06:47;;;;;;;0.20;0.10;;;26.80;99.90;;;;;;20824877;28;20229;-68
2021/07/08 11:16:53;;;;;;;1.67;0.30;;;27.50;99.90;;;;;;20814659;28;20221;-68
2021/07/08 11:27:02;;;;;;;2.97;0.57;;;27.70;99.90;;;;;;20780215;28;20594;-68
2021/07/08 11:37:06;;;;;;;2.60;1.88;;;28.00;99.90;;;;;;20775480;28;20219;-68
2021/07/08 11:47:12;;;;;;;0.65;0.65;;;28.20;99.90;;;;;;20748615;28;20194;-68
2021/07/08 11:57:16;;;;;;;2.83;0.28;;;28.50;99.90;;;;;;20761735;28;20249;-70
2021/07/08 12:07:21;;;;;;;0.30;0.22;;;28.50;99.90;;;;;;20806669;28;20275;-68
2021/07/08 12:17:28;;;;;;;0.30;0.20;;;29.10;99.90;;;;;;20769682;28;20630;-67
2021/07/08 12:27:40;;;;;;;0.77;0.30;;;29.40;99.90;;;;;;20738940;28;20248;-68
2021/07/08 12:37:43;;;;;;;6.13;0.38;;;29.20;99.90;;;;;;20738342;28;20226;-68
2021/07/08 12:47:50;;;;;;;0.50;0.30;;;30.30;99.90;;;;;;20769658;28;20519;-68
2021/07/08 12:58:01;;;;;;;0.90;0.73;;;31.20;99.90;;;;;;20775208;28;20222;-70
2021/07/08 13:08:11;;;;;;;0.52;0.40;;;31.50;99.90;;;;;;20794162;28;20639;-71
2021/07/08 13:18:16;;;;;;;1.92;0.90;;;31.80;99.90;;;;;;20808418;28;20309;-68
2021/07/08 13:28:29;;;;;;;1.20;0.52;;;32.10;99.90;;;;;;20793698;28;20619;-67
2021/07/08 13:38:34;;;;;;;0.30;0.20;;;32.80;99.90;;;;;;20805715;28;20260;-68
2021/07/08 13:48:42;;;;;;;3.85;0.40;;;32.30;99.90;;;;;;20813379;28;20256;-70
2021/07/08 13:58:47;;;;;;;6.25;0.75;;;32.20;99.90;;;;;;20755587;28;20790;-67
2021/07/08 14:08:53;;;;;;;0.43;0.20;;;32.10;99.90;;;;;;20811167;28;20642;-69
2021/07/08 14:18:58;;;;;;;0.90;0.90;;;32.00;99.90;;;;;;20825257;28;20238;-68
2021/07/08 14:29:02;;;;;;;1.48;0.80;;;32.00;99.90;;;;;;20825395;28;20208;-69
2021/07/08 14:39:06;;;;;;;1.52;1.27;;;32.70;99.90;;;;;;20823529;28;20230;-70
2021/07/08 14:49:12;;;;;;;0.77;0.50;;;32.80;99.90;;;;;;20822219;28;20206;-69
2021/07/08 14:59:15;;;;;;;0.60;0.40;;;33.20;99.90;;;;;;20821304;28;20758;-69
2021/07/08 15:09:20;;;;;;;0.40;0.35;;;33.00;99.90;;;;;;20822374;28;20286;-69
2021/07/08 15:19:24;;;;;;;0.43;0.43;;;32.90;99.90;;;;;;20820188;28;20511;-67
2021/07/08 15:29:29;;;;;;;2.20;0.43;;;33.50;99.90;;;;;;20818730;28;20354;-68
2021/07/08 15:39:32;;;;;;;1.73;0.77;;;33.10;99.90;;;;;;20816033;28;20241;-67
2021/07/08 15:49:37;;;;;;;2.30;0.40;;;33.00;99.90;;;;;;20765686;28;20653;-67
2021/07/08 15:59:43;;;;;;;1.20;0.52;;;33.30;99.90;;;;;;20744501;28;20606;-67
2021/07/08 16:10:05;;;;;;;0.57;0.50;;;32.50;99.90;;;;;;20820268;28;20252;-68
2021/07/08 16:20:11;;;;;;;2.47;0.70;;;30.00;99.90;;;;;;20816769;28;20221;-66
2021/07/08 16:30:18;;;;;;;0.88;0.57;;;28.80;99.90;;;;;;20817132;28;20225;-69
2021/07/08 16:40:22;;;;;;;1.80;0.55;;;27.50;99.90;;;;;;20818251;28;20240;-68
2021/07/08 16:50:34;;;;;;;0.68;0.60;;;27.30;99.90;;;;;;20817163;28;20674;-69
2021/07/08 17:00:45;;;;;;;0.55;0.50;;;26.60;99.90;;;;;;20817421;28;20580;-70
2021/07/08 17:10:50;;;;;;;3.15;2.03;;;26.60;99.90;;;;;;20815352;28;20201;-68
2021/07/08 17:20:54;;;;;;;0.70;0.70;;;26.50;99.90;;;;;;20813057;28;20622;-68
2021/07/08 17:31:01;;;;;;;2.90;0.50;;;26.60;99.90;;;;;;20815679;28;20228;-70
2021/07/08 17:41:04;;;;;;;0.35;0.32;;;26.30;99.90;;;;;;20809011;28;20233;-68
2021/07/08 17:51:10;;;;;;;1.48;0.63;;;26.20;99.90;;;;;;20821852;28;20222;-66
2021/07/08 18:01:14;;;;;;;0.28;0.20;;;26.30;99.90;;;;;;20782562;28;20779;-67
2021/07/08 18:11:20;;;;;;;0.60;0.60;;;25.40;99.90;;;;;;20763216;28;20198;-67
2021/07/08 18:21:24;;;;;;;1.35;1.10;;;26.00;99.90;;;;;;20827769;28;20217;-64
2021/07/08 18:31:29;;;;;;;2.13;1.27;;;27.70;99.90;;;;;;20824396;28;20784;-67
2021/07/08 18:41:33;;;;;;;1.00;0.80;;;28.60;99.90;;;;;;20828984;28;20233;-68
2021/07/08 18:51:38;;;;;;;1.98;0.70;;;27.80;99.90;;;;;;20805116;28;20659;-68
2021/07/08 19:01:45;;;;;;;3.03;0.95;;;26.70;99.90;;;;;;20787786;28;20254;-66
2021/07/08 19:12:10;;;;;;;0.55;0.43;;;25.40;99.90;;;;;;20741833;28;20195;-67
2021/07/08 19:22:14;;;;;;;0.45;0.45;;;25.10;99.90;;;;;;20740541;28;20579;-67
2021/07/08 19:32:19;;;;;;;1.05;0.43;;;24.90;99.90;;;;;;20763576;28;20222;-72
2021/07/08 19:42:23;;;;;;;0.40;0.40;;;24.80;99.90;;;;;;20821166;28;20209;-69
2021/07/08 19:52:28;;;;;;;1.05;0.47;;;24.70;99.90;;;;;;20816134;28;20273;-68
2021/07/08 20:02:31;;;;;;;3.13;0.32;;;24.60;99.90;;;;;;20776986;28;20237;-69
2021/07/08 20:12:36;;;;;;;0.80;0.45;;;24.60;99.90;;;;;;20782266;28;20222;-65
2021/07/08 20:22:40;;;;;;;1.85;1.20;;;24.50;99.90;;;;;;20779796;28;20671;-68
2021/07/08 20:32:45;;;;;;;2.70;0.98;;;24.50;99.90;;;;;;20786707;28;20209;-70
2021/07/08 20:42:49;;;;;;;2.58;0.82;;;24.40;99.90;;;;;;20785249;28;20679;-70
2021/07/08 20:52:55;;;;;;;0.70;0.60;;;24.30;99.90;;;;;;20777320;28;20652;-69
2021/07/08 21:02:59;;;;;;;5.63;3.67;;;24.50;99.90;;;;;;20773885;28;20228;-70
2021/07/08 21:13:04;;;;;;;0.77;0.50;;;24.50;99.90;;;;;;20781522;28;20297;-68
2021/07/08 21:23:08;;;;;;;1.05;0.65;;;24.40;99.90;;;;;;20790459;28;20823;-68
2021/07/08 21:33:13;;;;;;;0.45;0.40;;;24.20;99.90;;;;;;20773661;28;20285;-68
2021/07/08 21:43:17;;;;;;;1.20;0.50;;;24.40;99.90;;;;;;20774008;28;20767;-68
2021/07/08 21:53:22;;;;;;;0.90;0.50;;;24.40;99.90;;;;;;20773518;28;20640;-69
2021/07/08 22:03:26;;;;;;;0.20;0.10;;;24.50;99.90;;;;;;20771947;28;20257;-67
2021/07/08 22:13:31;;;;;;;1.27;1.02;;;24.50;99.90;;;;;;20772514;28;20191;-68
2021/07/08 22:23:35;;;;;;;0.22;0.20;;;24.50;99.90;;;;;;20772026;28;20273;-69
2021/07/08 22:33:39;;;;;;;0.40;0.40;;;24.40;99.90;;;;;;20781454;28;20222;-68
2021/07/08 22:43:43;;;;;;;0.50;0.40;;;24.50;99.90;;;;;;20785909;28;20218;-68
2021/07/08 22:53:48;;;;;;;0.60;0.50;;;24.30;99.90;;;;;;20787568;28;20621;-68
2021/07/08 23:03:51;;;;;;;0.40;0.40;;;24.20;99.90;;;;;;20785127;28;20261;-68
2021/07/08 23:13:56;;;;;;;6.10;0.43;;;24.10;99.90;;;;;;20784812;28;20560;-68
2021/07/08 23:24:00;;;;;;;0.30;0.27;;;23.90;99.90;;;;;;20784639;28;20256;-68
2021/07/08 23:34:06;;;;;;;0.73;0.30;;;23.70;99.90;;;;;;20796610;28;20525;-68
